createdAt,value
2022-08-23T00:00:00.188Z,21.3
2022-08-23T00:05:09.197Z,21.3
2022-08-23T00:10:00.156Z,21.2
2022-08-23T00:15:00.264Z,21.2
2022-08-23T00:20:00.254Z,21.1
2022-08-23T00:25:00.154Z,21
2022-08-23T00:30:00.257Z,21
2022-08-23T00:35:00.250Z,20.9
2022-08-23T00:40:00.384Z,20.8
2022-08-23T00:45:00.164Z,20.8
2022-08-23T00:50:00.158Z,20.7
2022-08-23T00:55:00.220Z,20.6
2022-08-23T01:00:00.182Z,20.6
2022-08-23T01:05:00.156Z,20.5
2022-08-23T01:10:00.230Z,20.4
2022-08-23T01:15:00.264Z,20.4
2022-08-23T01:20:00.200Z,20.3
2022-08-23T01:25:07.226Z,20.2
2022-08-23T01:30:00.197Z,20.2
2022-08-23T01:35:00.260Z,20.1
2022-08-23T01:40:00.364Z,20
2022-08-23T01:45:00.258Z,20
2022-08-23T01:50:00.304Z,19.9
2022-08-23T01:55:00.228Z,19.8
2022-08-23T02:00:00.215Z,19.8
2022-08-23T02:05:00.276Z,19.7
2022-08-23T02:10:00.258Z,19.7
2022-08-23T02:15:00.252Z,19.6
2022-08-23T02:20:00.157Z,19.5
2022-08-23T02:25:00.147Z,19.4
2022-08-23T02:30:00.298Z,19.4
2022-08-23T02:35:05.214Z,19.3
2022-08-23T02:40:00.270Z,19.2
2022-08-23T02:45:00.211Z,19.2
2022-08-23T02:50:00.148Z,19.1
2022-08-23T02:55:00.133Z,19
2022-08-23T03:00:00.242Z,19
2022-08-23T03:05:00.246Z,19
2022-08-23T03:10:00.222Z,18.9
2022-08-23T03:15:00.257Z,18.8
2022-08-23T03:20:00.166Z,18.7
2022-08-23T03:25:00.252Z,18.7
2022-08-23T03:30:00.194Z,18.6
2022-08-23T03:35:00.281Z,18.6
2022-08-23T03:40:00.429Z,18.5
2022-08-23T03:45:02.267Z,18.5
2022-08-23T03:50:00.262Z,18.4
2022-08-23T03:55:00.264Z,18.4
2022-08-23T04:00:00.314Z,18.3
2022-08-23T04:05:00.221Z,18.3
2022-08-23T04:10:00.290Z,18.2
2022-08-23T04:15:02.355Z,18.2
2022-08-23T04:20:00.232Z,18.2
2022-08-23T04:25:00.248Z,18.1
2022-08-23T04:30:00.251Z,18.1
2022-08-23T04:35:00.286Z,18
2022-08-23T04:40:00.299Z,18
2022-08-23T04:45:00.293Z,17.9
2022-08-23T04:50:00.239Z,17.9
2022-08-23T04:55:00.275Z,17.9
2022-08-23T05:00:00.189Z,17.8
2022-08-23T05:05:00.232Z,17.8
2022-08-23T05:10:00.259Z,17.8
2022-08-23T05:15:00.260Z,17.8
2022-08-23T05:20:00.233Z,17.8
2022-08-23T05:25:00.275Z,17.8
2022-08-23T05:30:00.232Z,17.8
2022-08-23T05:35:00.286Z,17.8
2022-08-23T05:40:00.301Z,17.8
2022-08-23T05:45:00.247Z,17.8
2022-08-23T05:50:00.179Z,17.8
2022-08-23T05:55:00.234Z,17.8
2022-08-23T06:00:00.256Z,17.8
2022-08-23T06:05:00.240Z,17.9
2022-08-23T06:10:00.252Z,17.9
2022-08-23T06:15:00.280Z,18
2022-08-23T06:20:00.397Z,18
2022-08-23T06:25:00.366Z,18
2022-08-23T06:30:00.300Z,18.1
2022-08-23T06:35:27.834Z,18.2
2022-08-23T06:40:00.392Z,18.2
2022-08-23T06:45:00.217Z,18.3
2022-08-23T06:50:00.222Z,18.4
2022-08-23T06:55:00.299Z,18.5
2022-08-23T07:00:00.244Z,18.6
2022-08-23T07:05:00.260Z,18.8
2022-08-23T07:10:00.234Z,18.9
2022-08-23T07:15:00.221Z,19
2022-08-23T07:20:00.301Z,19.2
2022-08-23T07:25:00.361Z,19.4
2022-08-23T07:30:00.309Z,19.4
2022-08-23T07:35:00.303Z,19.6
2022-08-23T07:40:00.338Z,19.8
2022-08-23T07:45:00.312Z,19.9
2022-08-23T07:50:00.269Z,20
2022-08-23T07:55:00.295Z,20.2
2022-08-23T08:00:00.184Z,20.2
2022-08-23T08:05:00.241Z,20.4
2022-08-23T08:10:00.235Z,20.5
2022-08-23T08:15:00.261Z,20.6
2022-08-23T08:20:00.214Z,20.7
2022-08-23T08:25:00.272Z,20.8
2022-08-23T08:30:00.298Z,21
2022-08-23T08:35:00.247Z,21
2022-08-23T08:40:00.247Z,21.1
2022-08-23T08:45:00.234Z,21.4
2022-08-23T08:50:00.233Z,21.6
2022-08-23T08:55:00.168Z,21.7
2022-08-23T09:00:00.318Z,21.8
2022-08-23T09:05:00.266Z,22
2022-08-23T09:10:00.201Z,22.2
2022-08-23T09:15:00.241Z,22.3
2022-08-23T09:20:00.302Z,22.5
2022-08-23T09:25:00.201Z,22.6
2022-08-23T09:30:00.262Z,22.7
2022-08-23T09:35:00.235Z,22.8
2022-08-23T09:40:00.310Z,23
2022-08-23T09:45:00.218Z,23.1
2022-08-23T09:50:00.227Z,23.3
2022-08-23T09:55:00.265Z,23.4
2022-08-23T10:00:00.253Z,23.4
2022-08-23T10:05:00.276Z,23.5
2022-08-23T10:10:00.229Z,23.6
2022-08-23T10:15:00.285Z,23.7
2022-08-23T10:20:00.226Z,23.8
2022-08-23T10:25:00.259Z,23.9
2022-08-23T10:30:00.342Z,24
2022-08-23T10:35:00.224Z,24.1
2022-08-23T10:40:05.332Z,24.2
2022-08-23T10:45:00.261Z,24.3
2022-08-23T10:50:00.308Z,24.4
2022-08-23T10:55:00.316Z,24.5
2022-08-23T11:00:00.280Z,24.6
2022-08-23T11:05:00.258Z,24.8
2022-08-23T11:10:00.256Z,25
2022-08-23T11:15:00.264Z,25.1
2022-08-23T11:20:00.270Z,25.3
2022-08-23T11:25:00.254Z,25.4
2022-08-23T11:30:00.336Z,25.5
2022-08-23T11:50:00.325Z,26
2022-08-23T11:55:00.275Z,26.1
2022-08-23T12:00:00.320Z,26.2
2022-08-23T12:05:00.342Z,26.3
2022-08-23T12:10:00.337Z,26.5
2022-08-23T12:15:00.343Z,26.6
2022-08-23T12:20:00.337Z,26.7
2022-08-23T12:25:00.253Z,26.8
2022-08-23T12:30:00.261Z,26.9
2022-08-23T12:35:00.350Z,26.9
2022-08-23T12:40:00.371Z,27.1
2022-08-23T12:45:00.281Z,27.2
2022-08-23T12:50:00.299Z,27.3
2022-08-23T12:55:00.245Z,27.4
2022-08-23T13:00:17.482Z,27.5
2022-08-23T13:05:00.230Z,27.6
2022-08-23T13:10:00.233Z,27.7
2022-08-23T13:15:00.341Z,27.8
2022-08-23T13:20:00.302Z,27.8
2022-08-23T13:25:26.886Z,28
2022-08-23T13:30:00.313Z,28.1
2022-08-23T13:35:00.297Z,28.2
2022-08-23T13:40:00.472Z,28.2
2022-08-23T13:45:00.251Z,28.3
2022-08-23T13:50:00.244Z,28.4
2022-08-23T13:55:00.672Z,28.4
2022-08-23T14:00:00.252Z,28.5
2022-08-23T14:05:00.376Z,28.5
2022-08-23T14:10:00.240Z,28.7
2022-08-23T14:15:00.258Z,28.7
2022-08-23T14:25:01.214Z,28.9
2022-08-23T14:30:00.375Z,28.9
2022-08-23T14:35:00.274Z,29
2022-08-23T14:40:00.462Z,29.1
2022-08-23T14:45:00.291Z,29.3
2022-08-23T14:50:00.385Z,29.4
2022-08-23T14:55:00.279Z,29.5
2022-08-23T15:00:00.390Z,29.7
2022-08-23T15:05:00.624Z,29.8
2022-08-23T15:25:00.283Z,30.2
2022-08-23T15:30:00.254Z,30.3
2022-08-23T15:35:00.298Z,30.2
2022-08-23T15:40:00.346Z,30.3
2022-08-23T15:45:00.270Z,30.3
2022-08-23T15:50:00.278Z,30.3
2022-08-23T15:55:00.250Z,30.4
2022-08-23T16:00:00.281Z,30.4
2022-08-23T16:05:00.279Z,30.4
2022-08-23T16:10:00.263Z,30.4
2022-08-23T16:15:00.248Z,30.5
2022-08-23T16:20:00.315Z,30.5
2022-08-23T16:25:00.272Z,30.6
2022-08-23T16:30:00.215Z,30.5
2022-08-23T16:35:00.735Z,30.5
2022-08-23T16:40:00.434Z,30.5
2022-08-23T16:45:00.269Z,30.3
2022-08-23T16:50:00.260Z,30.3
2022-08-23T16:55:00.382Z,30.2
2022-08-23T17:00:00.315Z,30.1
2022-08-23T17:05:00.231Z,30
2022-08-23T17:10:00.357Z,30
2022-08-23T17:15:00.299Z,29.8
2022-08-23T17:20:00.287Z,29.7
2022-08-23T17:25:00.239Z,29.6
2022-08-23T17:30:00.442Z,29.4
2022-08-23T17:35:00.439Z,29.4
2022-08-23T17:40:00.303Z,29.2
2022-08-23T17:45:00.313Z,29.1
2022-08-23T17:50:00.180Z,29
2022-08-23T17:55:01.008Z,28.9
2022-08-23T18:00:00.287Z,28.7
2022-08-23T18:05:00.359Z,28.6
2022-08-23T18:10:00.271Z,28.5
2022-08-23T18:15:00.253Z,28.4
2022-08-23T18:20:00.223Z,28.3
2022-08-23T18:25:00.273Z,28.2
2022-08-23T18:30:00.214Z,28
2022-08-23T18:35:00.241Z,27.8
2022-08-23T18:40:00.343Z,27.7
2022-08-23T18:45:00.277Z,27.6
2022-08-23T18:50:00.311Z,27.4
2022-08-23T18:55:00.236Z,27.3
2022-08-23T19:00:00.277Z,27
2022-08-23T19:05:00.283Z,27
2022-08-23T19:10:00.209Z,26.8
2022-08-23T19:15:00.291Z,26.6
2022-08-23T19:20:00.343Z,26.5
2022-08-23T19:25:00.597Z,26.3
2022-08-23T19:30:00.292Z,26.2
2022-08-23T19:35:00.320Z,26
2022-08-23T19:40:00.371Z,25.9
2022-08-23T19:45:00.258Z,25.8
2022-08-23T19:50:00.282Z,25.6
2022-08-23T19:55:05.266Z,25.5
2022-08-23T20:00:00.267Z,25.4
2022-08-23T20:05:00.238Z,25.3
2022-08-23T20:10:00.195Z,25.2
2022-08-23T20:15:00.268Z,25.1
2022-08-23T20:20:00.311Z,25
2022-08-23T20:25:00.229Z,25
2022-08-23T20:30:00.308Z,24.8
2022-08-23T20:35:00.330Z,24.8
2022-08-23T20:40:00.451Z,24.6
2022-08-23T20:45:00.257Z,24.6
2022-08-23T20:50:00.249Z,24.5
2022-08-23T20:55:00.277Z,24.4
2022-08-23T21:00:00.301Z,24.3
2022-08-23T21:05:00.297Z,24.2
2022-08-23T21:10:00.156Z,24.1
2022-08-23T21:15:00.151Z,24
2022-08-23T21:20:00.239Z,23.9
2022-08-23T21:25:00.303Z,23.8
2022-08-23T21:30:00.322Z,23.7
2022-08-23T21:35:00.275Z,23.6
2022-08-23T21:40:00.397Z,23.6
2022-08-23T21:45:00.252Z,23.5
2022-08-23T21:50:00.249Z,23.4
2022-08-23T21:55:00.340Z,23.4
2022-08-23T22:00:00.326Z,23.3
2022-08-23T22:05:00.253Z,23.3
2022-08-23T22:10:00.256Z,23.2
2022-08-23T22:15:00.312Z,23.2
2022-08-23T22:20:00.159Z,23.1
2022-08-23T22:25:00.156Z,23
2022-08-23T22:30:00.258Z,23
2022-08-23T23:00:00.269Z,22.6
2022-08-23T23:05:00.263Z,22.6
2022-08-23T23:10:00.243Z,22.5
2022-08-23T23:15:00.181Z,22.4
2022-08-23T23:20:00.313Z,22.4
2022-08-23T23:25:00.200Z,22.3
2022-08-23T23:45:00.238Z,22
2022-08-23T23:50:00.247Z,22
2022-08-23T23:55:00.250Z,21.9
